Time;durP1;ratioP1;P1;durP2;ratioP2;P2;SDS_P1;SDS_P2;PMS_P1;PMS_P2;Temp;Humidity;BMP_temperature;BMP_pressure;BME280_temperature;BME280_humidity;BME280_pressure;Samples;Min_cycle;Max_cycle;Signal;HPM_P1;HPM_P2
2021/04/12 00:02:48;;;;;;;9.63;4.03;;;3.20;84.20;;;;;;5052419;28;20020;-85
2021/04/12 00:05:31;;;;;;;5.28;2.72;;;3.20;84.30;;;;;;5052601;28;20462;-84
2021/04/12 00:08:05;;;;;;;10.15;3.45;;;3.20;84.30;;;;;;5052291;28;20147;-83
2021/04/12 00:10:49;;;;;;;6.93;2.97;;;3.20;84.50;;;;;;5052018;28;20017;-85
2021/04/12 00:13:24;;;;;;;8.88;3.78;;;3.20;84.80;;;;;;5052192;28;20349;-85
2021/04/12 00:16:00;;;;;;;9.18;3.90;;;3.10;84.60;;;;;;5072343;28;20112;-85
2021/04/12 00:18:32;;;;;;;8.75;3.72;;;3.20;85.00;;;;;;5071917;28;20024;-85
2021/04/12 00:21:11;;;;;;;8.32;3.47;;;3.10;85.00;;;;;;5074061;28;20024;-83
2021/04/12 00:23:47;;;;;;;7.78;3.38;;;3.10;85.10;;;;;;5071787;28;20103;-83
2021/04/12 00:26:26;;;;;;;7.68;3.42;;;3.10;84.90;;;;;;5071759;28;20060;-82
2021/04/12 00:28:57;;;;;;;10.90;4.03;;;3.10;85.20;;;;;;5071858;28;20029;-83
2021/04/12 00:31:42;;;;;;;11.95;4.80;;;3.10;85.40;;;;;;5072882;28;20020;-84
2021/04/12 00:34:31;;;;;;;15.27;5.13;;;3.10;85.30;;;;;;5072053;28;20017;-84
2021/04/12 00:37:07;;;;;;;11.65;4.90;;;3.10;85.60;;;;;;5072777;28;20016;-83
2021/04/12 00:39:51;;;;;;;11.00;4.10;;;3.10;85.50;;;;;;5071343;28;20051;-85
2021/04/12 00:42:53;;;;;;;15.85;5.00;;;3.00;85.50;;;;;;5071589;28;20115;-86
2021/04/12 00:45:35;;;;;;;16.30;6.75;;;3.00;85.60;;;;;;5070374;28;20115;-85
2021/04/12 00:48:35;;;;;;;9.65;4.60;;;3.10;86.30;;;;;;5071178;28;20022;-85
2021/04/12 00:51:15;;;;;;;13.43;4.68;;;3.00;85.70;;;;;;5071545;28;20444;-84
2021/04/12 00:54:04;;;;;;;12.32;4.82;;;3.00;85.60;;;;;;5071164;28;20204;-83
2021/04/12 00:56:43;;;;;;;9.75;3.95;;;2.90;85.70;;;;;;5071266;28;20016;-82
2021/04/12 00:59:13;;;;;;;13.43;5.68;;;2.90;85.80;;;;;;5071284;28;20020;-84
2021/04/12 01:01:42;;;;;;;10.37;4.83;;;2.90;85.70;;;;;;5071293;28;20024;-85
2021/04/12 01:04:23;;;;;;;8.98;3.67;;;2.90;85.90;;;;;;5071169;28;20031;-84
2021/04/12 01:07:16;;;;;;;9.60;4.22;;;2.80;86.00;;;;;;5071051;28;20107;-84
2021/04/12 01:10:03;;;;;;;9.15;4.15;;;2.80;86.00;;;;;;5070971;28;20437;-83
2021/04/12 01:13:06;;;;;;;10.40;4.28;;;2.80;86.00;;;;;;5070587;28;20036;-84
2021/04/12 01:15:45;;;;;;;8.80;4.40;;;2.80;86.10;;;;;;5070794;28;20155;-84
2021/04/12 01:18:29;;;;;;;8.02;4.25;;;2.70;86.40;;;;;;5070884;28;20388;-84
2021/04/12 01:21:06;;;;;;;11.20;3.70;;;2.70;86.30;;;;;;5071033;28;20380;-84
2021/04/12 01:23:40;;;;;;;10.95;4.13;;;2.70;86.70;;;;;;5071633;28;20028;-83
2021/04/12 01:26:12;;;;;;;9.25;4.10;;;2.70;86.80;;;;;;5070686;28;20028;-84
2021/04/12 01:28:59;;;;;;;11.10;4.35;;;2.70;86.70;;;;;;5071422;28;20610;-84
2021/04/12 01:31:55;;;;;;;9.02;3.70;;;2.60;86.80;;;;;;5077598;28;20447;-85
2021/04/12 01:34:48;;;;;;;9.25;4.10;;;2.60;86.70;;;;;;5077622;28;20046;-84
2021/04/12 01:37:20;;;;;;;11.68;4.50;;;2.70;87.00;;;;;;5078472;28;20102;-84
2021/04/12 01:40:06;;;;;;;7.82;3.95;;;2.60;86.80;;;;;;5081533;28;20028;-81
2021/04/12 01:42:41;;;;;;;14.90;5.05;;;2.60;87.10;;;;;;5085526;28;20020;-84
2021/04/12 01:45:21;;;;;;;10.90;3.75;;;2.60;87.20;;;;;;5077764;28;20021;-84
2021/04/12 01:47:59;;;;;;;13.35;4.57;;;2.60;87.00;;;;;;5077474;28;20119;-85
2021/04/12 01:50:47;;;;;;;10.68;4.07;;;2.60;87.30;;;;;;5077944;28;20016;-84
2021/04/12 01:54:02;;;;;;;14.90;4.57;;;2.60;87.40;;;;;;5096497;28;20024;-81
2021/04/12 01:57:10;;;;;;;8.82;4.10;;;2.60;87.30;;;;;;5076160;28;20044;-82
2021/04/12 02:00:01;;;;;;;10.23;3.78;;;2.60;87.40;;;;;;5070920;28;20029;-84
2021/04/12 02:02:32;;;;;;;;;;;2.60;87.50;;;;;;5075660;28;20052;-83
2021/04/12 02:05:19;;;;;;;8.77;4.40;;;2.60;87.20;;;;;;5074301;28;19908;-84
2021/04/12 02:08:21;;;;;;;7.70;4.47;;;2.60;87.10;;;;;;5073839;28;20453;-84
2021/04/12 02:11:09;;;;;;;10.85;4.15;;;2.60;87.10;;;;;;5073464;28;20072;-84
2021/04/12 02:14:23;;;;;;;8.80;4.22;;;2.60;87.20;;;;;;5057226;28;20412;-85
2021/04/12 02:17:10;;;;;;;9.80;4.88;;;2.60;87.00;;;;;;5056622;28;20108;-85
2021/04/12 02:19:49;;;;;;;11.82;4.45;;;2.60;87.00;;;;;;5073572;28;20025;-83
2021/04/12 02:22:51;;;;;;;13.23;5.00;;;2.50;86.90;;;;;;5056861;28;20021;-85
2021/04/12 02:25:32;;;;;;;9.70;4.68;;;2.50;87.00;;;;;;5074054;28;20450;-85
2021/04/12 02:28:35;;;;;;;12.13;4.30;;;2.40;87.20;;;;;;5073871;28;20116;-85
2021/04/12 02:31:38;;;;;;;10.75;4.85;;;2.40;87.10;;;;;;5073979;28;20021;-86
2021/04/12 02:34:33;;;;;;;13.90;4.72;;;2.30;87.10;;;;;;5073833;28;20025;-85
2021/04/12 02:37:05;;;;;;;10.10;4.93;;;2.30;87.20;;;;;;5073646;28;20100;-85
2021/04/12 02:40:09;;;;;;;9.98;4.90;;;2.30;87.20;;;;;;5056723;28;20354;-84
2021/04/12 02:43:10;;;;;;;12.80;4.78;;;2.20;87.50;;;;;;5069422;28;20017;-85
2021/04/12 02:46:14;;;;;;;8.68;4.80;;;2.30;88.00;;;;;;5045528;28;20024;-85
2021/04/12 02:49:17;;;;;;;11.73;4.35;;;2.20;87.90;;;;;;5053651;28;20461;-85
2021/04/12 02:52:12;;;;;;;11.30;4.88;;;2.20;88.00;;;;;;5070340;28;20343;-85
2021/04/12 02:54:38;;;;;;;12.60;5.10;;;2.20;88.10;;;;;;5070246;28;20024;-84
2021/04/12 02:57:45;;;;;;;9.90;4.60;;;2.20;88.40;;;;;;5070275;28;20469;-85
2021/04/12 03:00:27;;;;;;;9.70;5.05;;;2.20;88.30;;;;;;5053711;28;20013;-84
2021/04/12 03:03:20;;;;;;;10.05;5.05;;;2.20;88.30;;;;;;5053518;28;20029;-84
2021/04/12 03:06:13;;;;;;;10.57;5.50;;;2.30;88.80;;;;;;5053455;28;20108;-84
2021/04/12 03:09:20;;;;;;;10.60;4.78;;;2.20;88.70;;;;;;5053120;28;20013;-84
2021/04/12 03:11:54;;;;;;;9.45;5.18;;;2.20;88.70;;;;;;5052276;28;20093;-84
2021/04/12 03:14:58;;;;;;;10.68;4.93;;;2.30;88.70;;;;;;5053209;28;20021;-84
2021/04/12 03:17:42;;;;;;;10.63;4.97;;;2.30;89.00;;;;;;5053306;28;20013;-84
2021/04/12 03:20:30;;;;;;;10.75;4.22;;;2.30;89.40;;;;;;5053313;28;20052;-84
2021/04/12 03:23:14;;;;;;;11.52;4.97;;;2.40;89.30;;;;;;5051951;28;20458;-84
2021/04/12 03:26:07;;;;;;;9.98;4.50;;;2.50;89.40;;;;;;5053092;28;20036;-85
2021/04/12 03:28:39;;;;;;;10.43;4.20;;;2.50;89.60;;;;;;5054585;28;20020;-85
2021/04/12 03:31:26;;;;;;;8.30;3.85;;;2.50;89.40;;;;;;5053726;28;20515;-84
2021/04/12 03:34:10;;;;;;;7.82;3.25;;;2.60;90.00;;;;;;5054162;28;20092;-81
2021/04/12 03:36:38;;;;;;;11.55;4.70;;;2.50;89.70;;;;;;5060369;28;20092;-82
2021/04/12 03:39:37;;;;;;;8.73;3.85;;;2.60;89.50;;;;;;5065112;28;20053;-85
2021/04/12 03:42:11;;;;;;;9.52;3.40;;;2.60;89.50;;;;;;5053379;28;20017;-83
2021/04/12 03:44:46;;;;;;;8.45;3.40;;;2.60;89.50;;;;;;5053627;28;20028;-84
2021/04/12 03:47:40;;;;;;;8.82;3.75;;;2.60;89.40;;;;;;5056034;28;20079;-85
2021/04/12 03:50:18;;;;;;;8.43;3.80;;;2.60;89.50;;;;;;5054924;28;20017;-85
2021/04/12 03:52:46;;;;;;;8.15;3.50;;;2.70;89.30;;;;;;5054343;28;20103;-86
2021/04/12 03:55:27;;;;;;;13.23;4.25;;;2.70;89.10;;;;;;5053154;28;20150;-86
2021/04/12 03:58:20;;;;;;;9.13;4.00;;;2.70;89.00;;;;;;5058335;28;20017;-87
2021/04/12 04:01:13;;;;;;;8.70;4.28;;;2.70;89.00;;;;;;5057583;28;20025;-85
2021/04/12 04:04:08;;;;;;;11.65;4.22;;;2.70;89.30;;;;;;5052887;28;20036;-85
2021/04/12 04:06:53;;;;;;;8.93;3.85;;;2.70;88.50;;;;;;5052087;28;20040;-84
2021/04/12 04:09:35;;;;;;;8.57;4.78;;;2.70;88.40;;;;;;5051347;28;20060;-84
2021/04/12 04:12:25;;;;;;;11.18;3.53;;;2.70;88.40;;;;;;5051557;28;20132;-83
2021/04/12 04:15:13;;;;;;;10.77;3.72;;;2.70;88.10;;;;;;5051937;28;20032;-83
2021/04/12 04:18:03;;;;;;;9.07;3.33;;;2.70;88.30;;;;;;5051838;28;20021;-83
2021/04/12 04:20:48;;;;;;;9.73;4.32;;;2.70;88.70;;;;;;5052135;28;20079;-84
2021/04/12 04:23:35;;;;;;;7.65;4.70;;;2.70;88.80;;;;;;5052190;28;20056;-85
2021/04/12 04:26:45;;;;;;;6.03;3.42;;;2.70;88.70;;;;;;5051839;28;20017;-85
2021/04/12 04:29:22;;;;;;;14.18;3.95;;;2.70;88.50;;;;;;5053751;28;20024;-86
2021/04/12 04:32:06;;;;;;;50.10;15.05;;;2.80;88.60;;;;;;5051196;28;20028;-85
2021/04/12 04:35:26;;;;;;;62.17;19.65;;;2.80;88.50;;;;;;5052031;28;20053;-83
2021/04/12 04:38:18;;;;;;;27.60;8.55;;;2.80;88.40;;;;;;5043516;28;20033;-84
2021/04/12 04:41:05;;;;;;;60.85;18.33;;;2.80;88.20;;;;;;5051554;28;20116;-84
2021/04/12 04:43:46;;;;;;;88.80;27.73;;;2.70;88.30;;;;;;5051885;28;20024;-83
2021/04/12 04:46:29;;;;;;;53.38;18.40;;;2.70;88.40;;;;;;5051905;28;20024;-82
2021/04/12 04:49:31;;;;;;;21.48;8.75;;;2.70;88.60;;;;;;5052596;28;20012;-83
2021/04/12 04:52:22;;;;;;;27.83;12.38;;;2.70;88.70;;;;;;5051775;28;20099;-84
2021/04/12 04:55:26;;;;;;;63.90;26.35;;;2.60;89.00;;;;;;5051705;28;20021;-84
2021/04/12 04:58:10;;;;;;;28.65;12.55;;;2.60;89.50;;;;;;5051840;28;20036;-85
2021/04/12 05:01:03;;;;;;;41.08;18.92;;;2.60;89.50;;;;;;5071714;28;20020;-86
2021/04/12 05:03:46;;;;;;;44.15;17.40;;;2.60;89.40;;;;;;5071156;28;20027;-86
2021/04/12 05:06:12;;;;;;;16.55;8.85;;;2.60;89.40;;;;;;5071961;28;20028;-85
2021/04/12 05:09:15;;;;;;;20.17;11.30;;;2.60;89.60;;;;;;5071814;28;20100;-86
2021/04/12 05:12:05;;;;;;;21.80;10.18;;;2.60;89.60;;;;;;5068030;28;20063;-86
2021/04/12 05:15:01;;;;;;;25.23;12.40;;;2.70;89.90;;;;;;5051545;28;20051;-84
2021/04/12 05:18:00;;;;;;;35.33;18.45;;;2.80;89.60;;;;;;5052451;28;20441;-87
2021/04/12 05:20:45;;;;;;;37.55;18.75;;;2.90;89.30;;;;;;5051717;28;20024;-87
2021/04/12 05:23:32;;;;;;;18.58;10.18;;;3.00;89.80;;;;;;5051868;28;20021;-87
2021/04/12 05:26:23;;;;;;;11.90;6.70;;;3.10;88.80;;;;;;5051949;28;20024;-86
2021/04/12 05:29:13;;;;;;;14.65;7.55;;;3.20;88.40;;;;;;5052433;28;20021;-87
2021/04/12 05:31:57;;;;;;;10.38;6.15;;;3.30;88.20;;;;;;5053306;28;20025;-86
2021/04/12 05:34:52;;;;;;;14.40;5.70;;;3.30;88.00;;;;;;5068606;28;20023;-85
2021/04/12 05:37:37;;;;;;;16.33;10.38;;;3.40;87.70;;;;;;5064214;28;20017;-86
2021/04/12 05:40:27;;;;;;;17.02;8.77;;;3.40;87.50;;;;;;5056692;28;20104;-88
2021/04/12 05:43:11;;;;;;;11.50;6.78;;;3.40;87.40;;;;;;5051888;28;20369;-87
2021/04/12 05:45:58;;;;;;;12.98;7.47;;;3.40;87.30;;;;;;5051914;28;20148;-88
2021/04/12 05:49:00;;;;;;;13.20;7.00;;;3.40;87.60;;;;;;5052224;28;20031;-87
2021/04/12 05:51:48;;;;;;;14.73;6.68;;;3.40;87.40;;;;;;5051265;28;20416;-82
2021/04/12 05:54:28;;;;;;;10.68;5.18;;;3.50;87.30;;;;;;5050869;28;20148;-86
2021/04/12 05:57:27;;;;;;;10.95;5.18;;;3.50;87.10;;;;;;5050673;28;20114;-85
2021/04/12 05:59:58;;;;;;;14.70;6.47;;;3.60;86.90;;;;;;5051587;28;20115;-85
2021/04/12 06:02:52;;;;;;;11.60;5.82;;;3.60;86.80;;;;;;5067717;28;20032;-85
2021/04/12 06:05:22;;;;;;;12.93;6.75;;;3.70;86.90;;;;;;5067606;28;20040;-86
2021/04/12 06:07:50;;;;;;;11.43;4.93;;;3.70;87.00;;;;;;5058684;28;20020;-86
2021/04/12 06:10:37;;;;;;;12.82;5.30;;;3.80;87.00;;;;;;5058685;28;20088;-85
2021/04/12 06:13:27;;;;;;;9.18;4.57;;;3.80;87.00;;;;;;5061046;28;20041;-86
2021/04/12 06:16:07;;;;;;;8.60;4.45;;;3.90;86.80;;;;;;5055584;28;20070;-83
2021/04/12 06:19:10;;;;;;;7.35;3.72;;;4.00;86.10;;;;;;5055143;28;20457;-86
2021/04/12 06:22:03;;;;;;;7.80;3.70;;;4.20;85.60;;;;;;5054026;28;20446;-83
2021/04/12 06:25:07;;;;;;;8.32;3.22;;;4.40;85.00;;;;;;5054415;28;20036;-83
2021/04/12 06:27:36;;;;;;;8.95;3.20;;;4.50;83.70;;;;;;5054236;28;20021;-83
2021/04/12 06:30:14;;;;;;;12.75;3.40;;;4.60;82.80;;;;;;5054871;28;20028;-84
2021/04/12 06:33:13;;;;;;;10.70;3.50;;;4.70;82.50;;;;;;5054782;28;20468;-83
2021/04/12 06:35:44;;;;;;;10.82;3.58;;;4.80;81.90;;;;;;5066194;28;20012;-81
2021/04/12 06:38:29;;;;;;;7.65;3.88;;;4.80;82.30;;;;;;5074740;28;20024;-83
2021/04/12 06:41:29;;;;;;;7.75;2.63;;;4.90;82.70;;;;;;5073251;28;20013;-84
2021/04/12 06:44:25;;;;;;;10.10;2.80;;;5.10;81.10;;;;;;5053458;28;20032;-84
2021/04/12 06:47:08;;;;;;;6.18;3.20;;;5.00;80.70;;;;;;5063177;28;20020;-83
2021/04/12 06:50:09;;;;;;;8.27;2.95;;;5.00;81.20;;;;;;5074184;28;20013;-82
2021/04/12 06:52:53;;;;;;;10.52;2.70;;;5.00;81.20;;;;;;5074065;28;20464;-82
2021/04/12 06:55:24;;;;;;;9.32;2.95;;;5.10;80.30;;;;;;5073566;28;20338;-82
2021/04/12 06:58:27;;;;;;;6.28;2.22;;;5.10;80.90;;;;;;5074657;28;20020;-81
2021/04/12 07:01:23;;;;;;;6.28;2.60;;;5.20;79.20;;;;;;5053679;28;20060;-84
2021/04/12 07:04:10;;;;;;;6.63;2.15;;;5.40;79.50;;;;;;5053829;28;20096;-82
2021/04/12 07:07:03;;;;;;;3.67;1.95;;;5.50;78.10;;;;;;5054920;28;20017;-85
2021/04/12 07:09:50;;;;;;;5.15;2.20;;;5.60;80.20;;;;;;5053687;28;20021;-83
2021/04/12 07:12:39;;;;;;;5.15;2.53;;;5.80;78.60;;;;;;5055458;28;20045;-84
2021/04/12 07:15:48;;;;;;;8.13;2.70;;;5.90;78.10;;;;;;5053990;28;20046;-87
2021/04/12 07:18:36;;;;;;;6.60;2.45;;;6.00;77.20;;;;;;5053690;28;20027;-83
2021/04/12 07:21:36;;;;;;;4.40;1.80;;;6.20;79.80;;;;;;5053784;28;20032;-88
2021/04/12 07:24:39;;;;;;;5.68;1.90;;;6.30;77.20;;;;;;5055158;28;20033;-86
2021/04/12 07:27:50;;;;;;;6.15;1.95;;;6.50;74.90;;;;;;5055619;28;20017;-86
2021/04/12 07:30:25;;;;;;;4.75;1.85;;;6.50;75.60;;;;;;5058647;28;20013;-87
2021/04/12 07:33:42;;;;;;;5.05;2.20;;;6.60;74.20;;;;;;5075692;28;20033;-89
2021/04/12 07:36:10;;;;;;;7.85;1.80;;;6.70;74.60;;;;;;5068379;28;20029;-90
2021/04/12 07:39:04;;;;;;;4.32;1.90;;;6.90;73.60;;;;;;5061426;28;20073;-89
2021/04/12 07:41:54;;;;;;;7.90;1.67;;;7.10;74.80;;;;;;5059829;28;20483;-83
2021/04/12 07:44:28;;;;;;;6.45;2.10;;;7.30;69.70;;;;;;5068104;28;20033;-82
2021/04/12 07:47:16;;;;;;;5.93;1.70;;;7.40;69.00;;;;;;5074773;28;20024;-86
2021/04/12 07:50:17;;;;;;;5.03;1.90;;;7.60;69.50;;;;;;5073687;28;20031;-85
2021/04/12 07:53:21;;;;;;;3.20;1.70;;;7.80;69.00;;;;;;5073238;28;20024;-84
2021/04/12 07:56:22;;;;;;;5.47;1.70;;;7.90;71.70;;;;;;5072868;28;20396;-84
2021/04/12 07:59:21;;;;;;;7.00;1.73;;;8.10;68.90;;;;;;5061498;28;20029;-84
2021/04/12 08:02:28;;;;;;;6.18;2.17;;;8.10;70.60;;;;;;5066503;28;20105;-82
2021/04/12 08:04:59;;;;;;;4.30;2.13;;;7.90;69.60;;;;;;5061791;28;20033;-81
2021/04/12 08:08:02;;;;;;;5.43;1.70;;;7.60;69.70;;;;;;5060895;28;20008;-82
2021/04/12 08:11:09;;;;;;;7.25;1.73;;;7.50;69.40;;;;;;5059681;28;20016;-83
2021/04/12 08:13:59;;;;;;;8.82;3.65;;;7.40;68.50;;;;;;5062718;28;20016;-80
2021/04/12 08:16:47;;;;;;;6.55;1.75;;;7.40;70.50;;;;;;5060955;28;20024;-82
2021/04/12 08:19:33;;;;;;;7.38;2.13;;;7.70;69.80;;;;;;5075531;28;20028;-81
2021/04/12 08:22:28;;;;;;;6.15;2.15;;;7.70;71.90;;;;;;5084658;28;20013;-81
2021/04/12 08:25:18;;;;;;;6.35;2.20;;;7.80;68.00;;;;;;5084879;28;20033;-85
2021/04/12 08:28:02;;;;;;;3.92;1.25;;;7.90;68.90;;;;;;5092376;28;20123;-85
2021/04/12 08:30:51;;;;;;;3.75;1.40;;;8.30;67.20;;;;;;5071841;28;20017;-80
2021/04/12 08:34:00;;;;;;;7.28;1.60;;;8.20;64.50;;;;;;5072727;28;20376;-76
2021/04/12 08:37:00;;;;;;;7.97;2.20;;;8.10;64.80;;;;;;5071841;28;20027;-80
2021/04/12 08:39:55;;;;;;;5.57;1.40;;;8.00;65.90;;;;;;5070652;28;20021;-81
2021/04/12 08:42:33;;;;;;;3.97;1.00;;;8.10;65.50;;;;;;5071809;28;20292;-83
2021/04/12 08:45:40;;;;;;;3.13;1.33;;;8.40;76.00;;;;;;5072707;28;20052;-86
2021/04/12 08:48:48;;;;;;;4.72;1.27;;;8.60;66.00;;;;;;5073457;28;20060;-86
2021/04/12 08:51:45;;;;;;;6.13;1.33;;;8.50;73.30;;;;;;5071251;28;20457;-79
2021/04/12 08:54:37;;;;;;;5.07;1.05;;;8.50;62.40;;;;;;5050099;28;20489;-80
2021/04/12 08:57:27;;;;;;;3.97;1.10;;;8.20;60.80;;;;;;5059175;28;20465;-83
2021/04/12 09:00:20;;;;;;;3.90;1.23;;;8.10;60.00;;;;;;5071350;28;20024;-80
2021/04/12 09:03:10;;;;;;;7.30;1.30;;;8.10;60.40;;;;;;5050770;28;20037;-79
2021/04/12 09:06:02;;;;;;;;;;;8.10;62.80;;;;;;5051685;28;20358;-82
2021/04/12 09:08:43;;;;;;;3.67;1.65;;;8.30;66.30;;;;;;5051017;28;19995;-81
2021/04/12 09:11:41;;;;;;;4.40;1.10;;;8.50;60.40;;;;;;5054294;28;20041;-87
2021/04/12 09:14:15;;;;;;;4.80;1.30;;;8.60;64.70;;;;;;5054487;28;20125;-85
2021/04/12 09:16:57;;;;;;;5.88;1.40;;;8.70;58.00;;;;;;5051524;28;20079;-82
2021/04/12 09:19:45;;;;;;;3.83;1.42;;;8.90;58.60;;;;;;5063986;28;20112;-79
2021/04/12 09:22:27;;;;;;;4.03;1.20;;;9.20;61.60;;;;;;5068188;28;20025;-83
2021/04/12 09:25:22;;;;;;;3.42;1.25;;;9.20;59.50;;;;;;5053655;28;20021;-83
2021/04/12 09:28:22;;;;;;;4.72;1.40;;;9.20;62.80;;;;;;5071199;28;20021;-82
2021/04/12 09:31:06;;;;;;;3.40;1.50;;;9.20;60.80;;;;;;5064442;28;20048;-85
2021/04/12 09:33:56;;;;;;;5.15;1.38;;;9.10;59.20;;;;;;5069356;28;20068;-84
2021/04/12 09:36:42;;;;;;;3.13;1.27;;;9.10;66.40;;;;;;5059208;28;20112;-84
2021/04/12 09:39:42;;;;;;;6.82;1.67;;;9.50;64.30;;;;;;5055180;28;20047;-82
2021/04/12 09:42:38;;;;;;;13.02;3.00;;;9.60;62.90;;;;;;5067996;28;20032;-84
2021/04/12 09:45:38;;;;;;;3.83;1.88;;;9.50;59.20;;;;;;5059097;28;20091;-83
2021/04/12 09:48:25;;;;;;;6.72;1.98;;;9.40;59.10;;;;;;5054275;28;20021;-83
2021/04/12 09:51:12;;;;;;;5.72;1.92;;;9.20;61.00;;;;;;5055580;28;20021;-81
2021/04/12 09:53:58;;;;;;;5.45;2.03;;;9.00;60.90;;;;;;5058674;28;20104;-81
2021/04/12 09:56:38;;;;;;;5.45;2.13;;;8.80;63.30;;;;;;5057600;28;20430;-84
2021/04/12 09:59:28;;;;;;;6.32;1.98;;;8.80;62.70;;;;;;5059538;28;20020;-89
2021/04/12 10:01:54;;;;;;;16.90;3.28;;;9.10;61.60;;;;;;5060238;28;20509;-85
2021/04/12 10:04:37;;;;;;;14.07;3.25;;;9.20;61.40;;;;;;5060880;28;20123;-85
2021/04/12 10:07:10;;;;;;;4.95;2.65;;;9.10;62.80;;;;;;5054954;28;20098;-85
2021/04/12 10:10:03;;;;;;;5.68;2.50;;;9.10;66.40;;;;;;5055102;28;20360;-83
2021/04/12 10:12:58;;;;;;;5.60;2.30;;;9.20;61.30;;;;;;5054723;28;20133;-81
2021/04/12 10:15:42;;;;;;;6.18;2.80;;;9.30;65.00;;;;;;5054639;28;20059;-80
2021/04/12 10:18:15;;;;;;;5.57;2.35;;;9.40;62.70;;;;;;5054546;28;20063;-81
2021/04/12 10:21:15;;;;;;;5.25;2.03;;;9.50;63.50;;;;;;5054804;28;20017;-82
2021/04/12 10:23:41;;;;;;;;;;;9.70;62.20;;;;;;5055193;28;20067;-82
2021/04/12 10:26:34;;;;;;;5.00;2.20;;;9.70;62.50;;;;;;5054359;28;20010;-80
2021/04/12 10:29:13;;;;;;;6.28;2.15;;;9.60;58.80;;;;;;5055415;28;20039;-83
2021/04/12 10:31:47;;;;;;;2.42;1.33;;;9.40;61.90;;;;;;5054094;28;20051;-82
2021/04/12 10:34:25;;;;;;;3.83;0.90;;;9.20;62.80;;;;;;5053286;28;20377;-79
2021/04/12 10:36:59;;;;;;;3.40;0.93;;;8.80;64.10;;;;;;5052858;28;20052;-79
2021/04/12 10:39:38;;;;;;;2.50;0.90;;;8.80;62.80;;;;;;5052875;28;20469;-79
2021/04/12 10:42:29;;;;;;;1.13;0.70;;;9.10;67.70;;;;;;5055884;28;20017;-86
2021/04/12 10:45:20;;;;;;;3.45;0.80;;;9.60;63.10;;;;;;5055717;28;20139;-83
2021/04/12 10:48:05;;;;;;;1.33;0.90;;;9.80;60.70;;;;;;5053622;28;20017;-84
2021/04/12 10:50:59;;;;;;;2.38;1.00;;;9.70;61.10;;;;;;5053698;28;20052;-84
2021/04/12 10:53:49;;;;;;;6.90;1.50;;;9.90;61.10;;;;;;5053619;28;20070;-83
2021/04/12 10:56:38;;;;;;;2.42;1.00;;;10.20;58.40;;;;;;5053133;28;20033;-86
2021/04/12 10:59:23;;;;;;;3.33;1.00;;;10.20;58.00;;;;;;5054604;28;20017;-83
2021/04/12 11:02:21;;;;;;;1.88;0.95;;;10.40;64.10;;;;;;5052510;28;20112;-83
2021/04/12 11:04:52;;;;;;;2.10;0.82;;;10.60;56.50;;;;;;5052935;28;20127;-82
2021/04/12 11:07:46;;;;;;;2.05;0.90;;;10.80;58.60;;;;;;5053484;28;20473;-82
2021/04/12 11:10:53;;;;;;;2.85;1.00;;;10.90;55.60;;;;;;5053755;28;20013;-82
2021/04/12 11:13:28;;;;;;;2.70;1.10;;;10.80;60.00;;;;;;5052803;28;20116;-82
2021/04/12 11:16:15;;;;;;;1.95;0.88;;;10.90;57.40;;;;;;5053696;28;20021;-82
2021/04/12 11:18:44;;;;;;;3.92;1.35;;;10.90;54.90;;;;;;5053766;28;20017;-82
2021/04/12 11:21:37;;;;;;;3.10;1.05;;;11.00;54.80;;;;;;5053471;28;20020;-82
2021/04/12 11:24:27;;;;;;;2.53;1.05;;;11.00;53.00;;;;;;5052897;28;20029;-82
2021/04/12 11:27:27;;;;;;;2.70;1.13;;;11.30;53.00;;;;;;5054028;28;20416;-83
2021/04/12 11:30:18;;;;;;;4.20;1.60;;;11.30;58.20;;;;;;5065957;28;20028;-80
2021/04/12 11:33:14;;;;;;;2.47;0.90;;;11.30;53.00;;;;;;5058214;28;20031;-83
2021/04/12 11:35:59;;;;;;;3.13;0.95;;;11.00;58.70;;;;;;5053953;28;20057;-83
2021/04/12 11:38:40;;;;;;;3.85;1.10;;;10.90;51.60;;;;;;5052263;28;20017;-83
2021/04/12 11:41:37;;;;;;;2.63;1.20;;;10.60;52.90;;;;;;5052560;28;20458;-83
2021/04/12 11:44:15;;;;;;;2.72;1.20;;;10.70;55.90;;;;;;5052607;28;20032;-83
2021/04/12 11:47:09;;;;;;;2.03;1.20;;;10.90;55.80;;;;;;5052476;28;20416;-83
2021/04/12 11:49:56;;;;;;;2.60;1.30;;;11.40;58.30;;;;;;5053117;28;20053;-84
2021/04/12 11:52:34;;;;;;;12.52;2.25;;;11.90;51.90;;;;;;5052610;28;20029;-82
2021/04/12 11:55:24;;;;;;;9.18;1.50;;;12.30;52.60;;;;;;5053877;28;20353;-81
2021/04/12 11:58:11;;;;;;;2.20;1.50;;;12.50;53.40;;;;;;5053573;28;20025;-79
2021/04/12 12:00:58;;;;;;;3.50;1.35;;;12.60;50.20;;;;;;5052518;28;20025;-80
2021/04/12 12:03:51;;;;;;;4.28;1.67;;;12.70;57.50;;;;;;5052459;28;20021;-80
2021/04/12 12:07:07;;;;;;;7.35;3.95;;;12.60;53.90;;;;;;5054439;28;20363;-80
2021/04/12 12:09:52;;;;;;;2.63;1.20;;;12.60;56.60;;;;;;5051689;28;20036;-80
2021/04/12 12:12:34;;;;;;;6.95;1.55;;;12.50;52.90;;;;;;5051983;28;20052;-82
2021/04/12 12:15:26;;;;;;;5.82;1.67;;;12.20;46.80;;;;;;5052401;28;20052;-81
2021/04/12 12:18:12;;;;;;;3.15;1.10;;;11.70;50.60;;;;;;5053345;28;20021;-82
2021/04/12 12:21:08;;;;;;;2.95;1.00;;;11.30;49.10;;;;;;5052341;28;20017;-81
2021/04/12 12:23:58;;;;;;;4.57;1.40;;;11.00;49.10;;;;;;5053353;28;20378;-81
2021/04/12 12:26:37;;;;;;;2.50;0.73;;;10.70;49.00;;;;;;5051650;28;20366;-82
2021/04/12 12:29:26;;;;;;;3.88;1.10;;;10.50;59.40;;;;;;5051941;28;20290;-81
2021/04/12 12:32:18;;;;;;;4.30;1.20;;;10.50;50.10;;;;;;5051927;28;20021;-81
2021/04/12 12:34:56;;;;;;;3.22;1.13;;;10.60;52.10;;;;;;5051575;28;20028;-80
2021/04/12 12:37:51;;;;;;;2.08;1.10;;;10.60;60.00;;;;;;5051462;28;20052;-83
2021/04/12 12:40:25;;;;;;;5.47;2.00;;;10.50;59.70;;;;;;5051778;28;20051;-82
2021/04/12 12:43:00;;;;;;;2.80;1.30;;;10.40;72.40;;;;;;5051109;28;20017;-82
2021/04/12 12:45:30;;;;;;;5.65;2.10;;;9.90;65.90;;;;;;5051656;28;20495;-83
2021/04/12 12:47:58;;;;;;;;;;;9.40;73.00;;;;;;5052963;28;20112;-87
2021/04/12 12:50:50;;;;;;;4.32;1.45;;;9.20;76.50;;;;;;5053497;28;19904;-87
2021/04/12 12:53:25;;;;;;;2.17;1.20;;;9.10;70.60;;;;;;5053122;28;20021;-84
2021/04/12 12:55:58;;;;;;;7.63;3.00;;;8.80;69.70;;;;;;5053163;28;20453;-86
2021/04/12 12:58:27;;;;;;;4.40;1.40;;;8.60;74.50;;;;;;5053447;28;20020;-86
2021/04/12 13:00:56;;;;;;;6.95;2.50;;;8.50;71.70;;;;;;5052069;28;20021;-85
2021/04/12 13:03:39;;;;;;;4.43;1.63;;;8.30;69.80;;;;;;5052559;28;20029;-84
2021/04/12 13:06:28;;;;;;;9.20;4.35;;;8.20;69.00;;;;;;5051773;28;20049;-85
2021/04/12 13:09:26;;;;;;;4.85;2.97;;;8.10;70.10;;;;;;5051362;28;20465;-82
2021/04/12 13:11:56;;;;;;;4.68;1.50;;;8.00;68.50;;;;;;5052560;28;20041;-80
2021/04/12 13:14:42;;;;;;;5.18;1.52;;;8.00;68.80;;;;;;5051885;28;20449;-80
2021/04/12 13:17:26;;;;;;;2.75;1.63;;;8.20;67.50;;;;;;5048820;28;20016;-79
2021/04/12 13:19:57;;;;;;;5.47;1.77;;;8.30;67.20;;;;;;5050824;28;20024;-82
2021/04/12 13:22:38;;;;;;;3.92;1.40;;;8.40;68.50;;;;;;5052756;28;20531;-84
2021/04/12 13:25:25;;;;;;;2.92;1.13;;;8.60;65.00;;;;;;5054666;28;20013;-79
2021/04/12 13:28:17;;;;;;;2.90;1.33;;;8.60;63.40;;;;;;5066854;28;20039;-81
2021/04/12 13:30:58;;;;;;;3.55;1.45;;;8.50;65.10;;;;;;5051607;28;20091;-81
2021/04/12 13:33:36;;;;;;;4.70;1.20;;;8.50;63.80;;;;;;5052110;28;20514;-81
2021/04/12 13:36:10;;;;;;;2.47;1.30;;;8.40;61.00;;;;;;5052720;28;20017;-82
2021/04/12 13:38:39;;;;;;;6.43;1.50;;;8.30;63.10;;;;;;5051834;28;20024;-82
2021/04/12 13:41:12;;;;;;;3.15;1.10;;;8.20;61.70;;;;;;5052138;28;20092;-87
2021/04/12 13:43:42;;;;;;;42.90;22.45;;;8.20;62.20;;;;;;5051480;28;20440;-79
2021/04/12 13:46:28;;;;;;;10.98;3.33;;;8.30;62.50;;;;;;5051687;28;20036;-81
2021/04/12 13:49:17;;;;;;;9.02;2.78;;;8.40;60.80;;;;;;5051530;28;20009;-81
2021/04/12 13:52:09;;;;;;;6.32;1.80;;;8.40;56.90;;;;;;5051555;28;20028;-87
2021/04/12 13:54:48;;;;;;;3.35;1.58;;;8.50;58.90;;;;;;5052293;28;20037;-82
2021/04/12 13:57:19;;;;;;;2.70;1.48;;;8.50;56.30;;;;;;5050309;28;20019;-80
2021/04/12 13:59:53;;;;;;;3.55;1.30;;;8.50;56.70;;;;;;5050839;28;20056;-79
2021/04/12 14:02:36;;;;;;;4.03;1.25;;;8.40;57.80;;;;;;5051425;28;20381;-83
2021/04/12 14:05:13;;;;;;;5.20;2.08;;;8.40;58.80;;;;;;5051203;28;20017;-80
2021/04/12 14:07:51;;;;;;;3.47;1.40;;;8.60;59.50;;;;;;5055432;28;20021;-78
2021/04/12 14:11:03;;;;;;;7.20;1.55;;;9.00;57.50;;;;;;5058613;28;20017;-79
2021/04/12 14:14:00;;;;;;;3.35;1.38;;;9.40;55.90;;;;;;5053217;28;20033;-78
2021/04/12 14:16:29;;;;;;;4.53;1.60;;;9.70;55.20;;;;;;5053200;28;20032;-82
2021/04/12 14:19:05;;;;;;;4.72;1.40;;;10.00;56.10;;;;;;5051807;28;20028;-79
2021/04/12 14:21:41;;;;;;;3.58;1.52;;;10.30;52.30;;;;;;5050628;28;20346;-79
2021/04/12 14:24:11;;;;;;;4.90;1.30;;;10.60;53.50;;;;;;5049923;28;20029;-78
2021/04/12 14:26:47;;;;;;;2.47;1.40;;;10.90;52.90;;;;;;5050131;28;20169;-79
2021/04/12 14:29:28;;;;;;;4.80;1.88;;;11.20;52.20;;;;;;5051721;28;20021;-79
2021/04/12 14:32:01;;;;;;;3.03;1.70;;;11.50;57.20;;;;;;5050204;28;20040;-80
2021/04/12 14:34:35;;;;;;;4.50;1.80;;;11.60;54.60;;;;;;5050044;28;20164;-79
2021/04/12 14:37:11;;;;;;;5.20;1.70;;;11.70;49.80;;;;;;5052207;28;20043;-80